sensor_id;sensor_type;location;lat;lon;timestamp;temperature;humidity
37518;DHT22;23366;52.498;13.446;2023-04-30T00:01:46;9.80;99.90
37518;DHT22;23366;52.498;13.446;2023-04-30T00:04:12;9.70;99.90
37518;DHT22;23366;52.498;13.446;2023-04-30T00:06:37;9.70;99.90
37518;DHT22;23366;52.498;13.446;2023-04-30T00:09:03;9.70;99.90
37518;DHT22;23366;52.498;13.446;2023-04-30T00:11:28;9.70;99.90
37518;DHT22;23366;52.498;13.446;2023-04-30T00:13:53;9.70;99.90
37518;DHT22;23366;52.498;13.446;2023-04-30T00:16:21;9.60;99.90
37518;DHT22;23366;52.498;13.446;2023-04-30T00:18:46;9.60;99.90
37518;DHT22;23366;52.498;13.446;2023-04-30T00:21:12;9.60;99.90
37518;DHT22;23366;52.498;13.446;2023-04-30T00:23:37;9.60;99.90
37518;DHT22;23366;52.498;13.446;2023-04-30T00:26:03;9.50;99.90
37518;DHT22;23366;52.498;13.446;2023-04-30T00:28:28;9.50;99.90
37518;DHT22;23366;52.498;13.446;2023-04-30T00:30:54;9.50;99.90
37518;DHT22;23366;52.498;13.446;2023-04-30T00:33:19;9.50;99.90
37518;DHT22;23366;52.498;13.446;2023-04-30T00:35:46;9.40;99.90
37518;DHT22;23366;52.498;13.446;2023-04-30T00:38:11;9.40;99.90
37518;DHT22;23366;52.498;13.446;2023-04-30T00:40:37;9.40;99.90
37518;DHT22;23366;52.498;13.446;2023-04-30T00:43:04;9.30;99.90
37518;DHT22;23366;52.498;13.446;2023-04-30T00:45:30;9.40;99.90
37518;DHT22;23366;52.498;13.446;2023-04-30T00:47:55;9.30;99.90
37518;DHT22;23366;52.498;13.446;2023-04-30T00:50:21;9.30;99.90
37518;DHT22;23366;52.498;13.446;2023-04-30T00:52:47;9.30;99.90
37518;DHT22;23366;52.498;13.446;2023-04-30T00:55:13;9.20;99.90
37518;DHT22;23366;52.498;13.446;2023-04-30T00:57:39;9.20;99.90
37518;DHT22;23366;52.498;13.446;2023-04-30T01:00:07;9.20;99.90
37518;DHT22;23366;52.498;13.446;2023-04-30T01:02:36;9.20;99.90
37518;DHT22;23366;52.498;13.446;2023-04-30T01:05:05;9.20;99.90
37518;DHT22;23366;52.498;13.446;2023-04-30T01:07:33;9.10;99.90
37518;DHT22;23366;52.498;13.446;2023-04-30T01:09:59;9.10;99.90
37518;DHT22;23366;52.498;13.446;2023-04-30T01:13:02;9.10;99.90
37518;DHT22;23366;52.498;13.446;2023-04-30T01:15:34;9.10;99.90
37518;DHT22;23366;52.498;13.446;2023-04-30T01:18:08;9.10;99.90
37518;DHT22;23366;52.498;13.446;2023-04-30T01:20:38;9.00;99.90
37518;DHT22;23366;52.498;13.446;2023-04-30T01:23:18;9.00;99.90
37518;DHT22;23366;52.498;13.446;2023-04-30T01:25:59;9.00;99.90
37518;DHT22;23366;52.498;13.446;2023-04-30T01:28:30;8.90;99.90
37518;DHT22;23366;52.498;13.446;2023-04-30T01:30:57;8.90;99.90
37518;DHT22;23366;52.498;13.446;2023-04-30T01:33:22;8.90;99.90
37518;DHT22;23366;52.498;13.446;2023-04-30T01:36:15;8.90;99.90
37518;DHT22;23366;52.498;13.446;2023-04-30T01:52:59;8.70;99.90
37518;DHT22;23366;52.498;13.446;2023-04-30T01:55:38;8.70;99.90
37518;DHT22;23366;52.498;13.446;2023-04-30T01:58:09;8.70;99.90
37518;DHT22;23366;52.498;13.446;2023-04-30T02:00:36;8.60;99.90
37518;DHT22;23366;52.498;13.446;2023-04-30T02:03:02;8.60;99.90
37518;DHT22;23366;52.498;13.446;2023-04-30T02:05:27;8.60;99.90
37518;DHT22;23366;52.498;13.446;2023-04-30T02:07:53;8.60;99.90
37518;DHT22;23366;52.498;13.446;2023-04-30T02:10:21;8.60;99.90
37518;DHT22;23366;52.498;13.446;2023-04-30T02:12:47;8.60;99.90
37518;DHT22;23366;52.498;13.446;2023-04-30T02:15:13;8.50;99.90
37518;DHT22;23366;52.498;13.446;2023-04-30T02:17:38;8.50;99.90
37518;DHT22;23366;52.498;13.446;2023-04-30T02:20:04;8.60;99.90
37518;DHT22;23366;52.498;13.446;2023-04-30T02:22:30;8.50;99.90
37518;DHT22;23366;52.498;13.446;2023-04-30T02:24:55;8.50;99.90
37518;DHT22;23366;52.498;13.446;2023-04-30T02:27:23;8.40;99.90
37518;DHT22;23366;52.498;13.446;2023-04-30T02:29:49;8.50;99.90
37518;DHT22;23366;52.498;13.446;2023-04-30T02:32:15;8.40;99.90
37518;DHT22;23366;52.498;13.446;2023-04-30T02:34:40;8.40;99.90
37518;DHT22;23366;52.498;13.446;2023-04-30T02:37:06;8.40;99.90
37518;DHT22;23366;52.498;13.446;2023-04-30T02:39:32;8.40;99.90
37518;DHT22;23366;52.498;13.446;2023-04-30T02:41:58;8.40;99.90
37518;DHT22;23366;52.498;13.446;2023-04-30T02:44:23;8.30;99.90
37518;DHT22;23366;52.498;13.446;2023-04-30T02:46:49;8.30;99.90
37518;DHT22;23366;52.498;13.446;2023-04-30T02:49:15;8.30;99.90
37518;DHT22;23366;52.498;13.446;2023-04-30T02:51:40;8.30;99.90
37518;DHT22;23366;52.498;13.446;2023-04-30T02:54:05;8.20;99.90
37518;DHT22;23366;52.498;13.446;2023-04-30T02:56:31;8.20;99.90
37518;DHT22;23366;52.498;13.446;2023-04-30T02:58:56;8.20;99.90
37518;DHT22;23366;52.498;13.446;2023-04-30T03:01:22;8.20;99.90
37518;DHT22;23366;52.498;13.446;2023-04-30T03:03:47;8.20;99.90
37518;DHT22;23366;52.498;13.446;2023-04-30T03:06:13;8.20;99.90
37518;DHT22;23366;52.498;13.446;2023-04-30T03:08:38;8.20;99.90
37518;DHT22;23366;52.498;13.446;2023-04-30T03:11:04;8.20;99.90
37518;DHT22;23366;52.498;13.446;2023-04-30T03:13:29;8.20;99.90
37518;DHT22;23366;52.498;13.446;2023-04-30T03:15:56;8.10;99.90
37518;DHT22;23366;52.498;13.446;2023-04-30T03:18:23;8.10;99.90
37518;DHT22;23366;52.498;13.446;2023-04-30T03:20:48;8.10;99.90
37518;DHT22;23366;52.498;13.446;2023-04-30T03:23:14;8.00;99.90
37518;DHT22;23366;52.498;13.446;2023-04-30T03:25:39;8.10;99.90
37518;DHT22;23366;52.498;13.446;2023-04-30T03:28:05;8.00;99.90
37518;DHT22;23366;52.498;13.446;2023-04-30T03:30:30;8.00;99.90
37518;DHT22;23366;52.498;13.446;2023-04-30T03:32:56;8.00;99.90
37518;DHT22;23366;52.498;13.446;2023-04-30T03:35:21;8.00;99.90
37518;DHT22;23366;52.498;13.446;2023-04-30T03:37:47;7.90;99.90
37518;DHT22;23366;52.498;13.446;2023-04-30T03:40:12;8.00;99.90
37518;DHT22;23366;52.498;13.446;2023-04-30T03:42:38;7.90;99.90
37518;DHT22;23366;52.498;13.446;2023-04-30T03:45:03;7.90;99.90
37518;DHT22;23366;52.498;13.446;2023-04-30T03:47:29;7.90;99.90
37518;DHT22;23366;52.498;13.446;2023-04-30T03:49:54;7.90;99.90
37518;DHT22;23366;52.498;13.446;2023-04-30T03:52:20;7.90;99.90
37518;DHT22;23366;52.498;13.446;2023-04-30T03:54:46;7.90;99.90
37518;DHT22;23366;52.498;13.446;2023-04-30T03:57:11;7.90;99.90
37518;DHT22;23366;52.498;13.446;2023-04-30T03:59:38;7.90;99.90
37518;DHT22;23366;52.498;13.446;2023-04-30T04:02:04;7.90;99.90
37518;DHT22;23366;52.498;13.446;2023-04-30T04:04:30;7.90;99.90
37518;DHT22;23366;52.498;13.446;2023-04-30T04:06:56;7.90;99.90
37518;DHT22;23366;52.498;13.446;2023-04-30T04:09:21;7.90;99.90
37518;DHT22;23366;52.498;13.446;2023-04-30T04:11:47;7.90;99.90
37518;DHT22;23366;52.498;13.446;2023-04-30T04:14:13;7.90;99.90
37518;DHT22;23366;52.498;13.446;2023-04-30T04:16:38;7.90;99.90
37518;DHT22;23366;52.498;13.446;2023-04-30T04:19:04;7.90;99.90
37518;DHT22;23366;52.498;13.446;2023-04-30T04:21:29;8.00;99.90
37518;DHT22;23366;52.498;13.446;2023-04-30T04:23:55;8.00;99.90
37518;DHT22;23366;52.498;13.446;2023-04-30T04:26:21;8.00;99.90
37518;DHT22;23366;52.498;13.446;2023-04-30T04:28:50;8.10;99.90
37518;DHT22;23366;52.498;13.446;2023-04-30T04:31:16;8.10;99.90
37518;DHT22;23366;52.498;13.446;2023-04-30T04:33:41;8.20;99.90
37518;DHT22;23366;52.498;13.446;2023-04-30T04:36:07;8.30;99.90
37518;DHT22;23366;52.498;13.446;2023-04-30T04:38:32;8.40;99.90
37518;DHT22;23366;52.498;13.446;2023-04-30T04:40:58;8.50;99.90
37518;DHT22;23366;52.498;13.446;2023-04-30T04:43:23;8.60;99.90
37518;DHT22;23366;52.498;13.446;2023-04-30T04:45:49;8.70;99.90
37518;DHT22;23366;52.498;13.446;2023-04-30T04:48:14;8.90;99.90
37518;DHT22;23366;52.498;13.446;2023-04-30T04:50:40;9.10;99.90
37518;DHT22;23366;52.498;13.446;2023-04-30T04:53:05;9.30;99.90
37518;DHT22;23366;52.498;13.446;2023-04-30T04:55:31;9.70;99.90
37518;DHT22;23366;52.498;13.446;2023-04-30T04:57:56;10.60;99.90
37518;DHT22;23366;52.498;13.446;2023-04-30T05:00:22;11.70;99.90
37518;DHT22;23366;52.498;13.446;2023-04-30T05:02:48;12.70;99.90
37518;DHT22;23366;52.498;13.446;2023-04-30T05:05:14;13.80;99.90
37518;DHT22;23366;52.498;13.446;2023-04-30T05:07:39;14.80;98.50
37518;DHT22;23366;52.498;13.446;2023-04-30T05:10:06;15.60;96.20
37518;DHT22;23366;52.498;13.446;2023-04-30T05:12:32;16.30;94.30
37518;DHT22;23366;52.498;13.446;2023-04-30T05:14:57;16.70;92.30
37518;DHT22;23366;52.498;13.446;2023-04-30T05:17:23;17.10;91.20
37518;DHT22;23366;52.498;13.446;2023-04-30T05:19:48;17.30;90.50
37518;DHT22;23366;52.498;13.446;2023-04-30T05:22:15;17.40;89.80
37518;DHT22;23366;52.498;13.446;2023-04-30T05:24:40;17.40;88.60
37518;DHT22;23366;52.498;13.446;2023-04-30T05:27:06;17.70;86.70
37518;DHT22;23366;52.498;13.446;2023-04-30T05:29:32;17.90;85.60
37518;DHT22;23366;52.498;13.446;2023-04-30T05:31:57;18.30;83.90
37518;DHT22;23366;52.498;13.446;2023-04-30T05:34:23;18.70;82.20
37518;DHT22;23366;52.498;13.446;2023-04-30T05:36:48;19.20;79.90
37518;DHT22;23366;52.498;13.446;2023-04-30T05:39:14;19.60;77.40
37518;DHT22;23366;52.498;13.446;2023-04-30T05:41:39;19.90;76.10
37518;DHT22;23366;52.498;13.446;2023-04-30T05:44:05;20.40;74.10
37518;DHT22;23366;52.498;13.446;2023-04-30T05:46:31;20.80;72.50
37518;DHT22;23366;52.498;13.446;2023-04-30T05:48:56;21.00;70.70
37518;DHT22;23366;52.498;13.446;2023-04-30T05:51:22;21.30;69.00
37518;DHT22;23366;52.498;13.446;2023-04-30T05:53:47;21.60;67.80
37518;DHT22;23366;52.498;13.446;2023-04-30T05:56:13;21.90;66.70
37518;DHT22;23366;52.498;13.446;2023-04-30T05:58:38;22.10;65.40
37518;DHT22;23366;52.498;13.446;2023-04-30T06:01:04;22.30;63.90
37518;DHT22;23366;52.498;13.446;2023-04-30T06:03:30;22.50;63.90
37518;DHT22;23366;52.498;13.446;2023-04-30T06:05:55;23.00;62.50
37518;DHT22;23366;52.498;13.446;2023-04-30T06:08:21;23.40;61.10
37518;DHT22;23366;52.498;13.446;2023-04-30T06:10:47;23.90;59.60
37518;DHT22;23366;52.498;13.446;2023-04-30T06:13:12;24.50;58.40
37518;DHT22;23366;52.498;13.446;2023-04-30T06:15:39;25.10;57.10
37518;DHT22;23366;52.498;13.446;2023-04-30T06:18:04;25.50;56.20
37518;DHT22;23366;52.498;13.446;2023-04-30T06:20:30;26.00;55.30
37518;DHT22;23366;52.498;13.446;2023-04-30T06:22:55;26.30;53.80
37518;DHT22;23366;52.498;13.446;2023-04-30T06:25:21;26.70;53.10
37518;DHT22;23366;52.498;13.446;2023-04-30T06:27:46;27.00;52.10
37518;DHT22;23366;52.498;13.446;2023-04-30T06:30:12;27.20;51.50
37518;DHT22;23366;52.498;13.446;2023-04-30T06:32:37;27.60;51.00
37518;DHT22;23366;52.498;13.446;2023-04-30T06:35:03;27.80;50.20
37518;DHT22;23366;52.498;13.446;2023-04-30T06:37:29;28.10;49.60
37518;DHT22;23366;52.498;13.446;2023-04-30T06:40:00;28.20;49.10
37518;DHT22;23366;52.498;13.446;2023-04-30T06:42:25;28.10;49.00
37518;DHT22;23366;52.498;13.446;2023-04-30T06:44:51;28.00;49.00
37518;DHT22;23366;52.498;13.446;2023-04-30T06:47:16;28.00;48.50
37518;DHT22;23366;52.498;13.446;2023-04-30T06:49:41;28.20;48.40
37518;DHT22;23366;52.498;13.446;2023-04-30T06:52:07;28.30;48.20
37518;DHT22;23366;52.498;13.446;2023-04-30T06:54:32;28.50;47.70
37518;DHT22;23366;52.498;13.446;2023-04-30T06:56:58;28.80;47.30
37518;DHT22;23366;52.498;13.446;2023-04-30T06:59:23;29.10;46.80
37518;DHT22;23366;52.498;13.446;2023-04-30T07:01:49;29.60;46.40
37518;DHT22;23366;52.498;13.446;2023-04-30T07:04:14;30.00;45.00
37518;DHT22;23366;52.498;13.446;2023-04-30T07:06:40;30.40;45.20
37518;DHT22;23366;52.498;13.446;2023-04-30T07:09:05;31.00;44.90
37518;DHT22;23366;52.498;13.446;2023-04-30T07:11:31;31.50;44.00
37518;DHT22;23366;52.498;13.446;2023-04-30T07:13:57;31.90;43.50
37518;DHT22;23366;52.498;13.446;2023-04-30T07:16:24;32.30;43.10
37518;DHT22;23366;52.498;13.446;2023-04-30T07:18:49;32.70;42.60
37518;DHT22;23366;52.498;13.446;2023-04-30T07:21:15;32.90;42.30
37518;DHT22;23366;52.498;13.446;2023-04-30T07:23:40;33.80;41.70
37518;DHT22;23366;52.498;13.446;2023-04-30T07:26:06;34.10;40.90
37518;DHT22;23366;52.498;13.446;2023-04-30T07:28:32;34.40;40.70
37518;DHT22;23366;52.498;13.446;2023-04-30T07:30:57;35.00;39.90
37518;DHT22;23366;52.498;13.446;2023-04-30T07:33:23;35.60;39.20
37518;DHT22;23366;52.498;13.446;2023-04-30T07:35:49;36.10;39.20
37518;DHT22;23366;52.498;13.446;2023-04-30T07:38:15;36.80;38.50
37518;DHT22;23366;52.498;13.446;2023-04-30T07:40:43;37.40;38.10
37518;DHT22;23366;52.498;13.446;2023-04-30T07:43:08;38.00;37.20
37518;DHT22;23366;52.498;13.446;2023-04-30T07:45:35;37.90;36.90
37518;DHT22;23366;52.498;13.446;2023-04-30T07:48:00;38.00;36.60
37518;DHT22;23366;52.498;13.446;2023-04-30T07:50:26;38.70;36.20
37518;DHT22;23366;52.498;13.446;2023-04-30T07:52:53;39.40;35.60
37518;DHT22;23366;52.498;13.446;2023-04-30T07:55:19;40.00;34.80
37518;DHT22;23366;52.498;13.446;2023-04-30T07:57:44;40.50;34.50
37518;DHT22;23366;52.498;13.446;2023-04-30T08:00:10;41.10;34.00
37518;DHT22;23366;52.498;13.446;2023-04-30T08:02:36;41.30;33.80
37518;DHT22;23366;52.498;13.446;2023-04-30T08:05:01;41.30;33.60
37518;DHT22;23366;52.498;13.446;2023-04-30T08:07:28;41.30;33.30
37518;DHT22;23366;52.498;13.446;2023-04-30T08:09:53;41.20;33.20
37518;DHT22;23366;52.498;13.446;2023-04-30T08:12:19;40.90;33.30
37518;DHT22;23366;52.498;13.446;2023-04-30T08:14:44;40.60;33.40
37518;DHT22;23366;52.498;13.446;2023-04-30T08:17:10;40.40;33.40
37518;DHT22;23366;52.498;13.446;2023-04-30T08:19:36;40.20;33.40
37518;DHT22;23366;52.498;13.446;2023-04-30T08:22:01;39.80;33.40
37518;DHT22;23366;52.498;13.446;2023-04-30T08:24:27;39.70;33.20
37518;DHT22;23366;52.498;13.446;2023-04-30T08:26:52;39.40;32.90
37518;DHT22;23366;52.498;13.446;2023-04-30T08:29:18;39.10;33.00
37518;DHT22;23366;52.498;13.446;2023-04-30T08:31:43;39.20;32.80
37518;DHT22;23366;52.498;13.446;2023-04-30T08:34:09;38.80;32.60
37518;DHT22;23366;52.498;13.446;2023-04-30T08:36:34;38.40;32.40
37518;DHT22;23366;52.498;13.446;2023-04-30T08:39:00;38.40;33.20
37518;DHT22;23366;52.498;13.446;2023-04-30T08:41:31;38.20;33.20
37518;DHT22;23366;52.498;13.446;2023-04-30T08:44:00;38.30;33.20
37518;DHT22;23366;52.498;13.446;2023-04-30T08:46:28;38.40;33.10
37518;DHT22;23366;52.498;13.446;2023-04-30T08:48:56;38.20;33.00
37518;DHT22;23366;52.498;13.446;2023-04-30T08:51:23;37.60;32.40
37518;DHT22;23366;52.498;13.446;2023-04-30T08:53:50;37.40;33.40
37518;DHT22;23366;52.498;13.446;2023-04-30T08:56:17;37.10;33.40
37518;DHT22;23366;52.498;13.446;2023-04-30T08:58:42;37.10;33.50
37518;DHT22;23366;52.498;13.446;2023-04-30T09:01:09;36.80;33.70
37518;DHT22;23366;52.498;13.446;2023-04-30T09:03:35;36.30;33.10
37518;DHT22;23366;52.498;13.446;2023-04-30T09:06:00;35.10;33.10
37518;DHT22;23366;52.498;13.446;2023-04-30T09:08:40;35.00;33.40
37518;DHT22;23366;52.498;13.446;2023-04-30T09:13:49;33.70;33.80
37518;DHT22;23366;52.498;13.446;2023-04-30T09:16:15;32.60;34.20
37518;DHT22;23366;52.498;13.446;2023-04-30T09:18:40;30.90;33.80
37518;DHT22;23366;52.498;13.446;2023-04-30T09:21:06;29.70;35.10
37518;DHT22;23366;52.498;13.446;2023-04-30T09:23:33;28.50;35.20
37518;DHT22;23366;52.498;13.446;2023-04-30T09:25:58;27.30;36.50
37518;DHT22;23366;52.498;13.446;2023-04-30T09:28:25;26.20;38.30
37518;DHT22;23366;52.498;13.446;2023-04-30T09:30:56;25.00;39.30
37518;DHT22;23366;52.498;13.446;2023-04-30T09:33:21;24.30;41.30
37518;DHT22;23366;52.498;13.446;2023-04-30T09:35:50;23.70;41.30
37518;DHT22;23366;52.498;13.446;2023-04-30T09:38:30;22.90;42.10
37518;DHT22;23366;52.498;13.446;2023-04-30T09:41:00;22.40;43.60
37518;DHT22;23366;52.498;13.446;2023-04-30T09:43:27;22.00;44.00
37518;DHT22;23366;52.498;13.446;2023-04-30T09:45:52;21.60;43.60
37518;DHT22;23366;52.498;13.446;2023-04-30T09:48:22;21.10;44.10
37518;DHT22;23366;52.498;13.446;2023-04-30T09:50:49;20.60;44.50
37518;DHT22;23366;52.498;13.446;2023-04-30T09:53:14;20.10;46.90
37518;DHT22;23366;52.498;13.446;2023-04-30T09:55:44;19.90;46.10
37518;DHT22;23366;52.498;13.446;2023-04-30T09:58:11;19.60;47.00
37518;DHT22;23366;52.498;13.446;2023-04-30T10:00:37;19.40;47.50
37518;DHT22;23366;52.498;13.446;2023-04-30T10:03:08;19.30;47.90
37518;DHT22;23366;52.498;13.446;2023-04-30T10:05:44;19.20;47.00
37518;DHT22;23366;52.498;13.446;2023-04-30T10:08:25;19.00;47.60
37518;DHT22;23366;52.498;13.446;2023-04-30T10:10:57;18.90;47.30
37518;DHT22;23366;52.498;13.446;2023-04-30T10:13:25;18.70;47.70
37518;DHT22;23366;52.498;13.446;2023-04-30T10:15:58;18.50;48.50
37518;DHT22;23366;52.498;13.446;2023-04-30T10:18:30;18.50;48.20
37518;DHT22;23366;52.498;13.446;2023-04-30T10:20:58;18.40;48.50
37518;DHT22;23366;52.498;13.446;2023-04-30T10:23:25;18.20;47.20
37518;DHT22;23366;52.498;13.446;2023-04-30T10:25:52;18.20;47.30
37518;DHT22;23366;52.498;13.446;2023-04-30T10:28:18;18.00;47.10
37518;DHT22;23366;52.498;13.446;2023-04-30T10:30:43;17.90;47.60
37518;DHT22;23366;52.498;13.446;2023-04-30T10:33:28;17.70;47.30
37518;DHT22;23366;52.498;13.446;2023-04-30T10:35:59;17.70;49.20
37518;DHT22;23366;52.498;13.446;2023-04-30T10:38:27;17.60;48.20
37518;DHT22;23366;52.498;13.446;2023-04-30T10:40:58;17.40;46.00
37518;DHT22;23366;52.498;13.446;2023-04-30T10:43:25;17.10;46.40
37518;DHT22;23366;52.498;13.446;2023-04-30T10:45:51;16.90;46.80
37518;DHT22;23366;52.498;13.446;2023-04-30T10:48:21;16.70;47.80
37518;DHT22;23366;52.498;13.446;2023-04-30T10:50:55;16.60;49.40
37518;DHT22;23366;52.498;13.446;2023-04-30T10:53:20;16.70;50.60
37518;DHT22;23366;52.498;13.446;2023-04-30T10:56:00;16.80;51.20
37518;DHT22;23366;52.498;13.446;2023-04-30T10:58:32;16.90;49.90
37518;DHT22;23366;52.498;13.446;2023-04-30T11:01:03;16.90;48.10
37518;DHT22;23366;52.498;13.446;2023-04-30T11:03:30;16.90;48.90
37518;DHT22;23366;52.498;13.446;2023-04-30T11:05:57;16.90;49.00
37518;DHT22;23366;52.498;13.446;2023-04-30T11:08:38;16.80;49.30
37518;DHT22;23366;52.498;13.446;2023-04-30T11:11:07;16.90;50.90
37518;DHT22;23366;52.498;13.446;2023-04-30T11:16:05;16.80;50.50
37518;DHT22;23366;52.498;13.446;2023-04-30T11:18:31;16.80;50.00
37518;DHT22;23366;52.498;13.446;2023-04-30T11:20:57;16.80;49.90
37518;DHT22;23366;52.498;13.446;2023-04-30T11:23:24;16.80;50.80
37518;DHT22;23366;52.498;13.446;2023-04-30T11:25:53;16.80;51.20
37518;DHT22;23366;52.498;13.446;2023-04-30T11:28:24;16.80;50.90
37518;DHT22;23366;52.498;13.446;2023-04-30T11:30:58;16.80;50.00
37518;DHT22;23366;52.498;13.446;2023-04-30T11:33:25;16.80;50.90
37518;DHT22;23366;52.498;13.446;2023-04-30T11:35:52;16.80;50.10
37518;DHT22;23366;52.498;13.446;2023-04-30T11:38:24;16.80;50.20
37518;DHT22;23366;52.498;13.446;2023-04-30T11:40:51;16.70;49.90
37518;DHT22;23366;52.498;13.446;2023-04-30T11:43:23;16.50;49.90
37518;DHT22;23366;52.498;13.446;2023-04-30T11:46:12;16.60;51.30
37518;DHT22;23366;52.498;13.446;2023-04-30T11:48:48;16.60;51.90
37518;DHT22;23366;52.498;13.446;2023-04-30T11:51:19;16.60;50.10
37518;DHT22;23366;52.498;13.446;2023-04-30T11:53:46;16.60;50.50
37518;DHT22;23366;52.498;13.446;2023-04-30T11:56:13;16.50;49.30
37518;DHT22;23366;52.498;13.446;2023-04-30T11:58:38;16.50;52.00
37518;DHT22;23366;52.498;13.446;2023-04-30T12:01:05;16.50;52.00
37518;DHT22;23366;52.498;13.446;2023-04-30T12:03:39;16.50;51.20
37518;DHT22;23366;52.498;13.446;2023-04-30T12:06:05;16.50;50.50
37518;DHT22;23366;52.498;13.446;2023-04-30T12:08:31;16.50;50.60
37518;DHT22;23366;52.498;13.446;2023-04-30T12:10:56;16.50;51.40
37518;DHT22;23366;52.498;13.446;2023-04-30T12:13:21;16.50;50.90
37518;DHT22;23366;52.498;13.446;2023-04-30T12:15:58;16.20;49.60
37518;DHT22;23366;52.498;13.446;2023-04-30T12:18:23;16.00;52.10
37518;DHT22;23366;52.498;13.446;2023-04-30T12:20:50;16.00;51.20
37518;DHT22;23366;52.498;13.446;2023-04-30T12:23:15;16.00;51.20
37518;DHT22;23366;52.498;13.446;2023-04-30T12:25:41;16.00;51.40
37518;DHT22;23366;52.498;13.446;2023-04-30T12:28:09;16.10;51.20
37518;DHT22;23366;52.498;13.446;2023-04-30T12:30:34;16.00;51.60
37518;DHT22;23366;52.498;13.446;2023-04-30T12:33:00;16.10;53.00
37518;DHT22;23366;52.498;13.446;2023-04-30T12:35:29;16.10;53.30
37518;DHT22;23366;52.498;13.446;2023-04-30T12:38:06;16.10;52.90
37518;DHT22;23366;52.498;13.446;2023-04-30T12:40:33;16.10;53.50
37518;DHT22;23366;52.498;13.446;2023-04-30T12:43:03;16.10;53.40
37518;DHT22;23366;52.498;13.446;2023-04-30T12:45:50;16.10;54.50
37518;DHT22;23366;52.498;13.446;2023-04-30T12:48:17;16.10;53.10
37518;DHT22;23366;52.498;13.446;2023-04-30T12:50:52;16.00;52.90
37518;DHT22;23366;52.498;13.446;2023-04-30T12:53:18;15.90;52.30
37518;DHT22;23366;52.498;13.446;2023-04-30T12:56:12;15.90;53.50
37518;DHT22;23366;52.498;13.446;2023-04-30T12:58:58;15.80;52.50
37518;DHT22;23366;52.498;13.446;2023-04-30T13:01:44;15.70;54.10
37518;DHT22;23366;52.498;13.446;2023-04-30T13:04:10;15.70;53.50
37518;DHT22;23366;52.498;13.446;2023-04-30T13:06:36;15.70;53.30
37518;DHT22;23366;52.498;13.446;2023-04-30T13:09:01;15.70;53.20
37518;DHT22;23366;52.498;13.446;2023-04-30T13:11:27;15.60;53.90
37518;DHT22;23366;52.498;13.446;2023-04-30T13:13:53;15.60;54.20
37518;DHT22;23366;52.498;13.446;2023-04-30T13:16:19;15.60;54.90
37518;DHT22;23366;52.498;13.446;2023-04-30T13:18:45;15.60;54.10
37518;DHT22;23366;52.498;13.446;2023-04-30T13:21:11;15.60;55.50
37518;DHT22;23366;52.498;13.446;2023-04-30T13:23:37;15.60;53.90
37518;DHT22;23366;52.498;13.446;2023-04-30T13:26:02;15.60;55.00
37518;DHT22;23366;52.498;13.446;2023-04-30T13:28:27;15.60;55.50
37518;DHT22;23366;52.498;13.446;2023-04-30T13:30:53;15.70;55.00
37518;DHT22;23366;52.498;13.446;2023-04-30T13:33:18;15.60;54.10
37518;DHT22;23366;52.498;13.446;2023-04-30T13:35:45;15.60;54.00
37518;DHT22;23366;52.498;13.446;2023-04-30T13:38:11;15.40;52.80
37518;DHT22;23366;52.498;13.446;2023-04-30T13:40:37;15.40;52.90
37518;DHT22;23366;52.498;13.446;2023-04-30T13:43:03;15.30;53.10
37518;DHT22;23366;52.498;13.446;2023-04-30T13:45:28;15.20;54.70
37518;DHT22;23366;52.498;13.446;2023-04-30T13:47:54;15.20;55.60
37518;DHT22;23366;52.498;13.446;2023-04-30T13:50:19;15.20;55.90
37518;DHT22;23366;52.498;13.446;2023-04-30T13:52:45;15.30;56.40
37518;DHT22;23366;52.498;13.446;2023-04-30T13:55:10;15.30;56.60
37518;DHT22;23366;52.498;13.446;2023-04-30T13:57:36;15.30;54.60
37518;DHT22;23366;52.498;13.446;2023-04-30T14:00:02;15.30;55.60
37518;DHT22;23366;52.498;13.446;2023-04-30T14:02:29;15.20;55.00
37518;DHT22;23366;52.498;13.446;2023-04-30T14:04:54;15.20;56.00
37518;DHT22;23366;52.498;13.446;2023-04-30T14:07:24;15.10;54.60
37518;DHT22;23366;52.498;13.446;2023-04-30T14:09:49;15.10;55.10
37518;DHT22;23366;52.498;13.446;2023-04-30T14:12:15;15.00;55.60
37518;DHT22;23366;52.498;13.446;2023-04-30T14:14:40;15.00;57.10
37518;DHT22;23366;52.498;13.446;2023-04-30T14:17:06;15.10;58.20
37518;DHT22;23366;52.498;13.446;2023-04-30T14:19:32;15.20;58.00
37518;DHT22;23366;52.498;13.446;2023-04-30T14:21:57;15.20;57.60
37518;DHT22;23366;52.498;13.446;2023-04-30T14:24:23;15.30;58.30
37518;DHT22;23366;52.498;13.446;2023-04-30T14:26:50;15.30;58.70
37518;DHT22;23366;52.498;13.446;2023-04-30T14:29:15;15.40;56.60
37518;DHT22;23366;52.498;13.446;2023-04-30T14:31:42;15.40;57.00
37518;DHT22;23366;52.498;13.446;2023-04-30T14:34:08;15.40;56.10
37518;DHT22;23366;52.498;13.446;2023-04-30T14:36:33;15.30;54.60
37518;DHT22;23366;52.498;13.446;2023-04-30T14:39:00;15.30;55.30
37518;DHT22;23366;52.498;13.446;2023-04-30T14:41:35;15.30;55.50
37518;DHT22;23366;52.498;13.446;2023-04-30T14:44:02;15.30;56.30
37518;DHT22;23366;52.498;13.446;2023-04-30T14:46:28;15.30;57.30
37518;DHT22;23366;52.498;13.446;2023-04-30T14:48:54;15.10;54.30
37518;DHT22;23366;52.498;13.446;2023-04-30T14:51:19;14.90;55.10
37518;DHT22;23366;52.498;13.446;2023-04-30T14:53:44;14.90;56.00
37518;DHT22;23366;52.498;13.446;2023-04-30T14:56:10;14.90;57.00
37518;DHT22;23366;52.498;13.446;2023-04-30T14:58:35;15.00;57.50
37518;DHT22;23366;52.498;13.446;2023-04-30T15:01:01;15.00;56.00
37518;DHT22;23366;52.498;13.446;2023-04-30T15:03:26;15.00;56.00
37518;DHT22;23366;52.498;13.446;2023-04-30T15:05:52;15.00;56.40
37518;DHT22;23366;52.498;13.446;2023-04-30T15:08:17;15.00;54.40
37518;DHT22;23366;52.498;13.446;2023-04-30T15:10:43;15.00;55.40
37518;DHT22;23366;52.498;13.446;2023-04-30T15:13:09;15.00;55.70
37518;DHT22;23366;52.498;13.446;2023-04-30T15:15:34;15.00;56.20
37518;DHT22;23366;52.498;13.446;2023-04-30T15:18:01;15.00;55.20
37518;DHT22;23366;52.498;13.446;2023-04-30T15:20:28;15.00;55.40
37518;DHT22;23366;52.498;13.446;2023-04-30T15:22:53;14.90;55.10
37518;DHT22;23366;52.498;13.446;2023-04-30T15:25:20;14.90;54.50
37518;DHT22;23366;52.498;13.446;2023-04-30T15:27:46;15.00;56.30
37518;DHT22;23366;52.498;13.446;2023-04-30T15:30:11;15.00;55.70
37518;DHT22;23366;52.498;13.446;2023-04-30T15:32:37;15.00;56.10
37518;DHT22;23366;52.498;13.446;2023-04-30T15:35:03;15.00;55.60
37518;DHT22;23366;52.498;13.446;2023-04-30T15:37:29;14.90;55.90
37518;DHT22;23366;52.498;13.446;2023-04-30T15:39:55;14.90;55.00